Time;durP1;ratioP1;P1;durP2;ratioP2;P2;SDS_P1;SDS_P2;PMS_P1;PMS_P2;Temp;Humidity;BMP_temperature;BMP_pressure;BME280_temperature;BME280_humidity;BME280_pressure;Samples;Min_cycle;Max_cycle;Signal;HPM_P1;HPM_P2
2023/09/27 00:00:59;;;;;;;33.57;25.17;;;11.10;99.90;;;;;;5075795;28;20193;-70
2023/09/27 00:03:25;;;;;;;31.80;24.47;;;11.20;99.90;;;;;;5075554;28;20248;-70
2023/09/27 00:05:52;;;;;;;33.83;23.77;;;11.10;99.90;;;;;;5075826;28;20255;-69
2023/09/27 00:08:19;;;;;;;31.53;23.57;;;10.90;99.90;;;;;;5075455;28;20733;-69
2023/09/27 00:10:46;;;;;;;32.50;24.40;;;10.90;99.90;;;;;;5075621;28;20251;-69
2023/09/27 00:13:12;;;;;;;31.50;24.27;;;10.90;99.90;;;;;;5075481;28;20208;-69
2023/09/27 00:15:41;;;;;;;29.87;23.87;;;11.00;99.90;;;;;;5075422;28;20197;-69
2023/09/27 00:18:09;;;;;;;32.57;24.70;;;11.10;99.90;;;;;;5075295;28;20220;-69
2023/09/27 00:20:36;;;;;;;32.20;24.47;;;11.20;99.90;;;;;;5075215;28;20710;-69
2023/09/27 00:23:03;;;;;;;30.37;24.33;;;11.10;99.90;;;;;;5075489;28;20266;-69
2023/09/27 00:25:30;;;;;;;32.77;23.73;;;11.10;99.90;;;;;;5079417;28;20205;-69
2023/09/27 00:27:56;;;;;;;31.57;24.07;;;11.10;99.90;;;;;;5081269;28;20201;-69
2023/09/27 00:30:23;;;;;;;30.50;23.10;;;11.00;99.90;;;;;;5080225;28;20223;-70
2023/09/27 00:32:53;;;;;;;27.83;22.47;;;10.80;99.90;;;;;;5074979;28;20649;-69
2023/09/27 00:35:21;;;;;;;33.43;29.93;;;10.80;99.90;;;;;;5075115;28;20224;-69
2023/09/27 00:37:48;;;;;;;29.70;22.30;;;10.80;99.90;;;;;;5074755;28;20738;-69
2023/09/27 00:40:18;;;;;;;30.43;22.33;;;10.70;99.90;;;;;;5074933;28;20197;-69
2023/09/27 00:42:45;;;;;;;26.43;21.87;;;10.70;99.90;;;;;;5074715;28;20748;-69
2023/09/27 00:45:11;;;;;;;27.53;22.23;;;10.60;99.90;;;;;;5074715;28;20205;-69
2023/09/27 00:47:38;;;;;;;27.73;22.20;;;10.90;99.90;;;;;;5075099;28;20246;-69
2023/09/27 00:50:09;;;;;;;26.27;22.00;;;10.90;99.90;;;;;;5074253;28;20647;-69
2023/09/27 00:52:37;;;;;;;27.13;21.83;;;11.00;99.90;;;;;;5074880;28;20790;-69
2023/09/27 00:55:04;;;;;;;26.37;22.00;;;11.00;99.90;;;;;;5074622;28;20197;-68
2023/09/27 00:57:31;;;;;;;24.33;20.13;;;10.90;99.90;;;;;;5074616;28;20197;-69
2023/09/27 00:59:59;;;;;;;24.00;21.37;;;10.80;99.90;;;;;;5074442;28;20202;-69
2023/09/27 01:02:27;;;;;;;24.57;20.73;;;10.70;99.90;;;;;;5074673;28;20200;-69
2023/09/27 01:04:54;;;;;;;22.60;19.30;;;10.50;99.90;;;;;;5074282;28;20696;-68
2023/09/27 01:07:22;;;;;;;22.90;20.23;;;10.70;99.90;;;;;;5074366;28;20201;-68
2023/09/27 01:09:49;;;;;;;25.23;20.53;;;10.80;99.90;;;;;;5074380;28;20197;-69
2023/09/27 01:12:16;;;;;;;23.37;20.87;;;10.80;99.90;;;;;;5074254;28;20201;-68
2023/09/27 01:14:43;;;;;;;24.40;20.70;;;10.60;99.90;;;;;;5074371;28;20209;-69
2023/09/27 01:17:10;;;;;;;23.43;20.47;;;10.50;99.90;;;;;;5074172;28;20201;-69
2023/09/27 01:19:39;;;;;;;23.90;20.13;;;10.50;99.90;;;;;;5074248;28;20250;-69
2023/09/27 01:22:06;;;;;;;23.37;19.83;;;10.60;99.90;;;;;;5074126;28;20282;-69
2023/09/27 01:24:36;;;;;;;24.13;20.77;;;10.60;99.90;;;;;;5073862;28;20228;-69
2023/09/27 01:27:05;;;;;;;23.10;19.80;;;10.60;99.90;;;;;;5074371;28;20653;-69
2023/09/27 01:29:32;;;;;;;22.63;20.00;;;10.50;99.90;;;;;;5073777;28;20695;-69
2023/09/27 01:31:58;;;;;;;23.50;20.00;;;10.50;99.90;;;;;;5073742;28;20631;-68
2023/09/27 01:34:25;;;;;;;22.57;19.60;;;10.40;99.90;;;;;;5073864;28;20205;-68
2023/09/27 01:36:53;;;;;;;22.53;19.27;;;10.40;99.90;;;;;;5073570;28;20233;-68
2023/09/27 01:39:20;;;;;;;24.27;19.83;;;10.40;99.90;;;;;;5073608;28;20679;-68
2023/09/27 01:41:48;;;;;;;24.67;20.10;;;10.30;99.90;;;;;;5073828;28;20197;-68
2023/09/27 01:44:14;;;;;;;21.17;18.90;;;10.10;99.90;;;;;;5073713;28;20263;-69
2023/09/27 01:46:41;;;;;;;20.63;18.43;;;10.10;99.90;;;;;;5073633;28;20201;-69
2023/09/27 01:49:08;;;;;;;24.33;20.03;;;10.20;99.90;;;;;;5073561;28;20196;-69
2023/09/27 01:51:35;;;;;;;22.63;20.23;;;10.20;99.90;;;;;;5073475;28;20299;-68
2023/09/27 01:54:02;;;;;;;23.20;19.57;;;10.20;99.90;;;;;;5073363;28;20262;-68
2023/09/27 01:56:28;;;;;;;24.27;19.57;;;10.10;99.90;;;;;;5073514;28;20318;-69
2023/09/27 01:58:56;;;;;;;23.30;19.53;;;10.00;99.90;;;;;;5073497;28;20246;-69
2023/09/27 02:01:23;;;;;;;21.57;18.70;;;9.80;99.90;;;;;;5072838;28;20599;-68
2023/09/27 02:03:50;;;;;;;21.57;19.20;;;9.80;99.90;;;;;;5073002;28;20231;-69
2023/09/27 02:06:16;;;;;;;23.60;20.13;;;9.80;99.90;;;;;;5073247;28;20193;-69
2023/09/27 02:08:43;;;;;;;20.87;18.07;;;9.90;99.90;;;;;;5073112;28;20200;-68
2023/09/27 02:11:10;;;;;;;24.83;18.83;;;9.80;99.90;;;;;;5073259;28;20202;-69
2023/09/27 02:13:36;;;;;;;20.67;17.70;;;9.80;99.90;;;;;;5073202;28;20197;-69
2023/09/27 02:16:05;;;;;;;21.10;18.40;;;9.90;99.90;;;;;;5073171;28;20251;-69
2023/09/27 02:18:32;;;;;;;21.97;18.87;;;9.80;99.90;;;;;;5072980;28;20193;-69
2023/09/27 02:20:59;;;;;;;22.97;19.57;;;9.80;99.90;;;;;;5072966;28;20192;-69
2023/09/27 02:23:25;;;;;;;23.20;19.27;;;9.90;99.90;;;;;;5072765;28;20274;-69
2023/09/27 02:25:57;;;;;;;22.67;18.83;;;9.90;99.90;;;;;;5072875;28;20224;-68
2023/09/27 02:28:24;;;;;;;24.60;19.37;;;9.80;99.90;;;;;;5072961;28;20258;-69
2023/09/27 02:30:51;;;;;;;23.67;20.50;;;9.70;99.90;;;;;;5072923;28;20669;-70
2023/09/27 02:33:20;;;;;;;25.43;21.17;;;9.70;99.90;;;;;;5072773;28;20526;-69
2023/09/27 02:35:47;;;;;;;27.07;21.40;;;9.80;99.90;;;;;;5072734;28;20205;-69
2023/09/27 02:38:14;;;;;;;25.40;20.77;;;9.70;99.90;;;;;;5072571;28;20233;-69
2023/09/27 02:40:42;;;;;;;37.90;22.30;;;9.70;99.90;;;;;;5072669;28;20556;-69
2023/09/27 02:43:08;;;;;;;29.87;22.20;;;9.70;99.90;;;;;;5072618;28;20556;-69
2023/09/27 02:45:35;;;;;;;30.17;22.23;;;9.70;99.90;;;;;;5072733;28;20697;-69
2023/09/27 02:48:02;;;;;;;29.23;21.77;;;9.70;99.90;;;;;;5072562;28;20647;-69
2023/09/27 02:50:30;;;;;;;34.40;21.27;;;9.60;99.90;;;;;;5072801;28;20228;-69
2023/09/27 02:52:57;;;;;;;40.90;22.33;;;9.50;99.90;;;;;;5072863;28;20193;-69
2023/09/27 02:55:25;;;;;;;35.20;22.80;;;9.40;99.90;;;;;;5072755;28;20266;-68
2023/09/27 02:57:52;;;;;;;51.97;23.97;;;9.40;99.90;;;;;;5072633;28;20197;-69
2023/09/27 03:00:19;;;;;;;51.23;25.13;;;9.40;99.90;;;;;;5072610;28;20201;-69
2023/09/27 03:02:46;;;;;;;51.60;23.97;;;9.40;99.90;;;;;;5072440;28;20197;-68
2023/09/27 03:05:13;;;;;;;56.73;24.80;;;9.40;99.90;;;;;;5072365;28;20328;-68
2023/09/27 03:07:41;;;;;;;53.83;24.77;;;9.50;99.90;;;;;;5072495;28;20843;-68
2023/09/27 03:10:10;;;;;;;66.60;26.13;;;9.50;99.90;;;;;;5072408;28;20667;-68
2023/09/27 03:12:38;;;;;;;51.30;24.60;;;9.40;99.90;;;;;;5072435;28;20723;-68
2023/09/27 03:15:10;;;;;;;41.07;25.33;;;9.40;99.90;;;;;;5076423;28;20251;-69
2023/09/27 03:17:36;;;;;;;44.30;24.80;;;9.40;99.90;;;;;;5076722;28;20216;-69
2023/09/27 03:20:09;;;;;;;44.23;26.37;;;9.50;99.90;;;;;;5076513;28;20193;-69
2023/09/27 03:22:36;;;;;;;37.20;25.33;;;9.50;99.90;;;;;;5076497;28;20216;-69
2023/09/27 03:25:05;;;;;;;33.23;23.87;;;9.50;99.90;;;;;;5076139;28;20778;-69
2023/09/27 03:27:32;;;;;;;32.53;23.53;;;9.50;99.90;;;;;;5076068;28;20200;-69
2023/09/27 03:29:58;;;;;;;35.70;25.00;;;9.50;99.90;;;;;;5076147;28;20258;-68
2023/09/27 03:32:25;;;;;;;32.37;23.90;;;9.50;99.90;;;;;;5076330;28;20193;-69
2023/09/27 03:34:52;;;;;;;31.03;23.10;;;9.50;99.90;;;;;;5076327;28;20204;-69
2023/09/27 03:37:19;;;;;;;30.97;23.00;;;9.60;99.90;;;;;;5075918;28;20315;-70
2023/09/27 03:39:45;;;;;;;32.07;23.17;;;9.60;99.90;;;;;;5076020;28;20199;-69
2023/09/27 03:42:13;;;;;;;33.80;23.43;;;9.50;99.90;;;;;;5075913;28;20196;-69
2023/09/27 03:44:40;;;;;;;30.03;22.97;;;9.60;99.90;;;;;;5076176;28;20229;-69
2023/09/27 03:47:07;;;;;;;31.33;22.83;;;9.70;99.90;;;;;;5076203;28;20254;-69
2023/09/27 03:49:33;;;;;;;27.40;22.03;;;9.60;99.90;;;;;;5075921;28;20251;-69
2023/09/27 03:52:00;;;;;;;28.20;21.63;;;9.50;99.90;;;;;;5075959;28;20197;-69
2023/09/27 03:54:27;;;;;;;28.73;21.50;;;9.50;99.90;;;;;;5075763;28;20193;-69
2023/09/27 03:56:54;;;;;;;27.80;21.23;;;9.50;99.90;;;;;;5075656;28;20656;-69
2023/09/27 03:59:22;;;;;;;26.90;21.73;;;9.70;99.90;;;;;;5075820;28;20584;-69
2023/09/27 04:01:49;;;;;;;28.17;22.57;;;9.70;99.90;;;;;;5075722;28;20205;-68
2023/09/27 04:04:15;;;;;;;28.70;22.10;;;9.70;99.90;;;;;;5075569;28;20323;-70
2023/09/27 04:06:42;;;;;;;31.57;23.80;;;9.70;99.90;;;;;;5075555;28;20200;-69
2023/09/27 04:09:09;;;;;;;29.63;22.57;;;9.80;99.90;;;;;;5075354;28;20644;-69
2023/09/27 04:11:36;;;;;;;31.10;23.73;;;9.90;99.90;;;;;;5075450;28;20673;-69
2023/09/27 04:14:03;;;;;;;29.10;22.83;;;9.90;99.90;;;;;;5075281;28;20729;-69
2023/09/27 04:16:31;;;;;;;35.07;24.10;;;9.90;99.90;;;;;;5075533;28;20197;-70
2023/09/27 04:18:58;;;;;;;29.37;23.13;;;9.90;99.90;;;;;;5075384;28;20207;-72
2023/09/27 04:21:25;;;;;;;32.20;24.30;;;9.90;99.90;;;;;;5075281;28;20193;-69
2023/09/27 04:23:55;;;;;;;28.93;23.93;;;10.00;99.90;;;;;;5075036;28;20193;-69
2023/09/27 04:26:23;;;;;;;32.60;23.60;;;10.00;99.90;;;;;;5074652;28;20235;-69
2023/09/27 04:28:50;;;;;;;30.90;23.20;;;10.00;99.90;;;;;;5075419;28;20246;-69
2023/09/27 04:31:17;;;;;;;28.60;23.50;;;10.00;99.90;;;;;;5075441;28;20205;-69
2023/09/27 04:33:46;;;;;;;29.43;22.57;;;10.00;99.90;;;;;;5075218;28;20288;-69
2023/09/27 04:36:16;;;;;;;29.77;23.40;;;9.90;99.90;;;;;;5074717;28;20685;-69
2023/09/27 04:38:44;;;;;;;31.23;23.03;;;9.80;99.90;;;;;;5075371;28;20189;-68
2023/09/27 04:41:11;;;;;;;29.23;23.03;;;9.90;99.90;;;;;;5075331;28;20287;-70
2023/09/27 04:43:38;;;;;;;29.30;22.87;;;9.90;99.90;;;;;;5075062;28;20201;-69
2023/09/27 04:46:04;;;;;;;27.97;21.40;;;9.90;99.90;;;;;;5074904;28;20228;-69
2023/09/27 04:48:32;;;;;;;26.57;21.27;;;9.80;99.90;;;;;;5074878;28;20291;-69
2023/09/27 04:51:00;;;;;;;27.77;21.43;;;9.70;99.90;;;;;;5074735;28;20266;-70
2023/09/27 04:53:27;;;;;;;28.40;22.07;;;9.50;99.90;;;;;;5075171;28;20208;-70
2023/09/27 04:55:54;;;;;;;29.90;22.67;;;9.40;99.90;;;;;;5074873;28;20258;-69
2023/09/27 04:58:21;;;;;;;25.93;20.30;;;9.40;99.90;;;;;;5074764;28;20247;-69
2023/09/27 05:00:47;;;;;;;26.87;22.43;;;9.30;99.90;;;;;;5074572;28;20201;-69
2023/09/27 05:03:14;;;;;;;26.07;21.23;;;9.30;99.90;;;;;;5074577;28;20603;-69
2023/09/27 05:05:41;;;;;;;27.30;22.80;;;9.20;99.90;;;;;;5074210;28;20598;-68
2023/09/27 05:08:09;;;;;;;30.73;21.43;;;9.20;99.90;;;;;;5074409;28;20197;-69
2023/09/27 05:10:36;;;;;;;27.37;22.07;;;9.20;99.90;;;;;;5074475;28;20280;-69
2023/09/27 05:13:03;;;;;;;26.70;20.90;;;9.20;99.90;;;;;;5074266;28;20603;-68
2023/09/27 05:15:29;;;;;;;24.73;20.57;;;9.30;99.90;;;;;;5074247;28;20255;-69
2023/09/27 05:17:56;;;;;;;26.93;21.77;;;9.40;99.90;;;;;;5074128;28;20736;-69
2023/09/27 05:20:23;;;;;;;26.00;21.67;;;9.40;99.90;;;;;;5074038;28;20223;-69
2023/09/27 05:22:51;;;;;;;27.07;22.00;;;9.30;99.90;;;;;;5074208;28;20203;-69
2023/09/27 05:25:19;;;;;;;26.63;21.00;;;9.20;99.90;;;;;;5074116;28;20267;-69
2023/09/27 05:27:46;;;;;;;24.83;20.77;;;9.10;99.90;;;;;;5074072;28;20197;-70
2023/09/27 05:30:15;;;;;;;26.70;21.70;;;9.10;99.90;;;;;;5073964;28;20197;-70
2023/09/27 05:32:43;;;;;;;28.13;21.87;;;9.10;99.90;;;;;;5073756;28;20205;-70
2023/09/27 05:35:10;;;;;;;28.87;22.63;;;9.20;99.90;;;;;;5073927;28;20203;-70
2023/09/27 05:37:36;;;;;;;29.23;22.77;;;9.20;99.90;;;;;;5073552;28;20323;-70
2023/09/27 05:40:06;;;;;;;29.90;23.17;;;9.30;99.90;;;;;;5073875;28;20205;-68
2023/09/27 05:42:35;;;;;;;29.63;22.73;;;9.30;99.90;;;;;;5074547;28;20225;-70
2023/09/27 05:45:02;;;;;;;29.40;22.17;;;9.30;99.90;;;;;;5077258;28;20256;-70
2023/09/27 05:47:29;;;;;;;32.73;24.53;;;9.30;99.90;;;;;;5078209;28;20193;-71
2023/09/27 05:49:55;;;;;;;30.03;23.37;;;9.30;99.90;;;;;;5073865;28;20588;-69
2023/09/27 05:52:22;;;;;;;31.03;23.23;;;9.30;99.90;;;;;;5073386;28;20193;-69
2023/09/27 05:54:51;;;;;;;30.00;22.93;;;9.40;99.90;;;;;;5073033;28;20201;-69
2023/09/27 05:57:18;;;;;;;30.90;23.33;;;9.40;99.90;;;;;;5073373;28;20201;-68
2023/09/27 05:59:46;;;;;;;30.40;23.30;;;9.40;99.90;;;;;;5073223;28;20205;-69
2023/09/27 06:02:16;;;;;;;28.43;23.70;;;9.40;99.90;;;;;;5073081;28;20599;-69
2023/09/27 06:04:44;;;;;;;28.27;23.23;;;9.50;99.90;;;;;;5073273;28;20217;-69
2023/09/27 06:07:13;;;;;;;30.83;23.47;;;9.80;99.90;;;;;;5073263;28;20741;-69
2023/09/27 06:09:40;;;;;;;26.07;21.80;;;9.90;99.90;;;;;;5073136;28;20287;-68
2023/09/27 06:12:07;;;;;;;27.17;21.43;;;9.90;99.90;;;;;;5073055;28;20291;-69
2023/09/27 06:14:34;;;;;;;25.70;20.70;;;10.00;99.90;;;;;;5073100;28;20703;-69
2023/09/27 06:17:02;;;;;;;26.40;21.13;;;10.20;99.90;;;;;;5073165;28;20197;-69
2023/09/27 06:19:29;;;;;;;25.50;21.33;;;10.20;99.90;;;;;;5073090;28;20201;-69
2023/09/27 06:21:55;;;;;;;22.33;19.50;;;10.30;99.90;;;;;;5073110;28;20193;-69
2023/09/27 06:24:22;;;;;;;24.57;21.43;;;10.40;99.90;;;;;;5072886;28;20194;-69
2023/09/27 06:26:49;;;;;;;24.30;21.27;;;10.50;99.90;;;;;;5072927;28;20291;-70
2023/09/27 06:29:16;;;;;;;23.40;20.10;;;10.60;99.90;;;;;;5073210;28;20201;-70
2023/09/27 06:31:44;;;;;;;23.77;19.40;;;10.70;99.90;;;;;;5073060;28;20197;-69
2023/09/27 06:34:14;;;;;;;22.60;20.20;;;10.90;99.90;;;;;;5072927;28;20276;-69
2023/09/27 06:36:42;;;;;;;25.20;21.77;;;11.00;99.90;;;;;;5072780;28;20315;-69
2023/09/27 06:39:12;;;;;;;28.63;22.37;;;11.10;99.90;;;;;;5072815;28;20201;-70
2023/09/27 06:41:39;;;;;;;24.37;21.03;;;11.20;99.90;;;;;;5073136;28;20197;-70
2023/09/27 06:44:06;;;;;;;24.03;21.43;;;11.30;99.90;;;;;;5072765;28;20563;-70
2023/09/27 06:46:33;;;;;;;22.17;19.83;;;11.50;99.90;;;;;;5072747;28;20274;-70
2023/09/27 06:49:00;;;;;;;24.13;20.73;;;11.70;99.90;;;;;;5072258;28;20197;-70
2023/09/27 06:51:28;;;;;;;22.30;19.77;;;11.90;99.90;;;;;;5072751;28;20222;-70
2023/09/27 06:53:55;;;;;;;21.63;19.33;;;12.00;99.90;;;;;;5072614;28;20274;-70
2023/09/27 06:56:21;;;;;;;24.83;19.40;;;12.10;99.90;;;;;;5072881;28;20232;-70
2023/09/27 06:58:48;;;;;;;20.37;18.00;;;12.30;99.90;;;;;;5072863;28;20208;-70
2023/09/27 07:01:15;;;;;;;21.20;18.93;;;12.50;99.90;;;;;;5072905;28;20283;-70
2023/09/27 07:03:42;;;;;;;21.60;17.67;;;12.60;99.90;;;;;;5072662;28;20193;-68
2023/09/27 07:06:08;;;;;;;25.37;18.83;;;12.70;99.90;;;;;;5072636;28;20561;-68
2023/09/27 07:08:37;;;;;;;20.70;18.60;;;12.90;99.90;;;;;;5072417;28;20569;-69
2023/09/27 07:11:05;;;;;;;19.60;17.63;;;13.00;99.90;;;;;;5072591;28;20200;-69
2023/09/27 07:13:32;;;;;;;22.17;19.70;;;13.20;99.90;;;;;;5072671;28;20258;-68
2023/09/27 07:15:59;;;;;;;21.13;19.03;;;13.30;99.90;;;;;;5072449;28;20291;-69
2023/09/27 07:18:26;;;;;;;22.03;19.70;;;13.50;99.90;;;;;;5072462;28;20204;-68
2023/09/27 07:20:52;;;;;;;21.27;19.03;;;13.60;99.90;;;;;;5072339;28;20255;-68
2023/09/27 07:23:20;;;;;;;20.17;18.17;;;13.80;99.90;;;;;;5072550;28;20205;-68
2023/09/27 07:25:48;;;;;;;18.63;16.73;;;13.90;99.90;;;;;;5072487;28;20229;-68
2023/09/27 07:28:16;;;;;;;20.10;17.67;;;14.10;99.90;;;;;;5072513;28;20201;-69
2023/09/27 07:30:43;;;;;;;19.60;16.83;;;14.20;99.90;;;;;;5072403;28;20235;-69
2023/09/27 07:33:11;;;;;;;17.63;15.93;;;14.30;99.90;;;;;;5072256;28;20219;-69
2023/09/27 07:35:41;;;;;;;17.03;15.43;;;14.50;99.90;;;;;;5072178;28;20208;-69
2023/09/27 07:38:09;;;;;;;20.30;16.10;;;14.70;99.90;;;;;;5072059;28;20233;-69
2023/09/27 07:40:36;;;;;;;19.87;16.83;;;14.90;99.90;;;;;;5072357;28;20396;-69
2023/09/27 07:43:04;;;;;;;18.17;16.38;;;15.20;99.90;;;;;;5072245;28;20292;-69
2023/09/27 07:45:35;;;;;;;18.03;16.23;;;15.40;99.90;;;;;;5072064;28;20231;-68
2023/09/27 07:48:02;;;;;;;19.58;16.02;;;15.60;99.90;;;;;;5072030;28;20197;-68
2023/09/27 07:50:31;;;;;;;16.50;14.75;;;15.80;99.90;;;;;;5072276;28;20598;-69
2023/09/27 07:52:58;;;;;;;17.52;15.73;;;16.00;99.90;;;;;;5061310;28;20193;-70
2023/09/27 07:55:24;;;;;;;18.00;16.10;;;16.30;99.90;;;;;;5070545;28;20208;-69
2023/09/27 07:57:52;;;;;;;18.17;16.27;;;16.50;99.90;;;;;;5071516;28;20227;-69
2023/09/27 08:00:27;;;;;;;17.88;14.85;;;16.70;99.90;;;;;;5072845;28;20208;-67
2023/09/27 08:02:55;;;;;;;18.05;16.15;;;16.90;99.90;;;;;;5075208;28;20283;-69
2023/09/27 08:05:22;;;;;;;15.65;14.10;;;17.20;99.90;;;;;;5075285;28;20247;-68
2023/09/27 08:07:50;;;;;;;16.55;14.82;;;17.30;99.90;;;;;;5075028;28;20284;-68
2023/09/27 08:10:18;;;;;;;16.58;14.80;;;17.40;99.90;;;;;;5075299;28;20223;-68
2023/09/27 08:12:45;;;;;;;17.58;15.43;;;17.50;99.90;;;;;;5075114;28;20193;-67
2023/09/27 08:15:13;;;;;;;16.58;14.88;;;17.80;99.90;;;;;;5075054;28;20197;-68
2023/09/27 08:17:42;;;;;;;17.17;15.35;;;18.00;99.90;;;;;;5075107;28;20642;-68
2023/09/27 08:20:11;;;;;;;17.38;15.23;;;18.30;99.90;;;;;;5074813;28;20246;-68
2023/09/27 08:22:39;;;;;;;17.73;14.77;;;18.50;99.90;;;;;;5074909;28;20659;-68
2023/09/27 08:25:09;;;;;;;18.35;15.10;;;18.70;99.90;;;;;;5074625;28;20259;-68
2023/09/27 08:27:35;;;;;;;18.90;16.10;;;18.80;99.90;;;;;;5074853;28;20200;-68
2023/09/27 08:30:05;;;;;;;15.90;14.35;;;19.00;99.90;;;;;;5074957;28;20193;-68
2023/09/27 08:32:32;;;;;;;17.27;15.45;;;19.20;99.90;;;;;;5074916;28;20197;-68
2023/09/27 08:35:00;;;;;;;18.08;16.15;;;19.40;99.90;;;;;;5074506;28;20220;-68
2023/09/27 08:37:27;;;;;;;17.20;15.40;;;19.60;99.90;;;;;;5074664;28;20274;-69
2023/09/27 08:39:54;;;;;;;17.08;15.27;;;19.80;99.90;;;;;;5074656;28;20185;-68
2023/09/27 08:42:22;;;;;;;14.88;13.52;;;20.20;99.90;;;;;;5074598;28;20208;-69
2023/09/27 08:44:52;;;;;;;15.30;13.43;;;20.30;99.90;;;;;;5074577;28;20197;-69
2023/09/27 08:47:20;;;;;;;16.38;13.95;;;20.50;99.90;;;;;;5074513;28;20286;-68
2023/09/27 08:49:49;;;;;;;15.10;13.55;;;20.80;99.90;;;;;;5074358;28;20706;-68
2023/09/27 08:52:17;;;;;;;17.75;13.77;;;21.10;99.90;;;;;;5074559;28;20197;-67
2023/09/27 08:54:44;;;;;;;14.32;12.82;;;21.30;99.90;;;;;;5072702;28;20201;-68
2023/09/27 08:57:12;;;;;;;18.83;12.75;;;21.50;99.90;;;;;;5074700;28;20201;-68
2023/09/27 08:59:39;;;;;;;15.13;13.35;;;21.70;99.90;;;;;;5074410;28;20608;-68
2023/09/27 09:02:07;;;;;;;14.23;12.02;;;21.80;99.90;;;;;;5074380;28;20223;-68
2023/09/27 09:04:33;;;;;;;12.45;11.00;;;21.90;99.90;;;;;;5074487;28;20201;-68
2023/09/27 09:07:01;;;;;;;13.60;10.98;;;22.30;99.90;;;;;;5074010;28;20220;-70
2023/09/27 09:09:30;;;;;;;12.63;11.43;;;22.40;99.90;;;;;;5074172;28;20197;-69
2023/09/27 09:11:59;;;;;;;13.25;9.88;;;22.40;99.90;;;;;;5073598;28;20193;-68
2023/09/27 09:14:38;;;;;;;11.65;10.55;;;22.80;99.90;;;;;;5074084;28;20201;-68
2023/09/27 09:17:04;;;;;;;11.85;9.20;;;23.10;99.90;;;;;;5073937;28;20204;-68
2023/09/27 09:19:32;;;;;;;10.65;8.90;;;23.40;99.90;;;;;;5073988;28;20251;-68
2023/09/27 09:22:02;;;;;;;10.90;8.70;;;23.70;99.90;;;;;;5073807;28;20228;-68
2023/09/27 09:24:31;;;;;;;10.18;8.10;;;23.90;99.90;;;;;;5074066;28;20240;-68
2023/09/27 09:27:07;;;;;;;12.43;8.45;;;24.20;99.90;;;;;;5073558;28;20718;-68
2023/09/27 09:29:50;;;;;;;10.73;8.60;;;24.50;99.90;;;;;;5073699;28;20283;-67
2023/09/27 09:32:18;;;;;;;12.45;9.10;;;24.70;99.90;;;;;;5069666;28;20668;-69
2023/09/27 09:34:46;;;;;;;9.52;8.13;;;24.80;99.90;;;;;;5067744;28;20293;-68
2023/09/27 09:37:17;;;;;;;9.38;8.43;;;25.00;99.90;;;;;;5056250;28;20226;-69
2023/09/27 09:39:46;;;;;;;9.40;7.55;;;25.10;99.90;;;;;;5070804;28;20673;-69
2023/09/27 09:42:14;;;;;;;11.57;8.60;;;25.40;99.90;;;;;;5073508;28;20207;-68
2023/09/27 09:44:41;;;;;;;9.32;8.43;;;25.70;99.90;;;;;;5073248;28;20309;-68
2023/09/27 09:47:12;;;;;;;11.73;10.50;;;25.80;99.90;;;;;;5073423;28;20229;-68
2023/09/27 09:49:38;;;;;;;10.57;7.82;;;25.60;99.90;;;;;;5073259;28;20197;-67
2023/09/27 09:52:06;;;;;;;9.13;7.63;;;25.70;99.90;;;;;;5073405;28;20209;-68
2023/09/27 09:54:37;;;;;;;10.40;6.97;;;26.30;99.90;;;;;;5073086;28;20197;-67
2023/09/27 09:57:07;;;;;;;11.48;8.02;;;26.40;99.90;;;;;;5072978;28;20709;-68
2023/09/27 09:59:40;;;;;;;8.38;7.47;;;26.20;99.90;;;;;;5072666;28;20251;-68
2023/09/27 10:02:18;;;;;;;9.13;7.35;;;26.30;99.90;;;;;;5073227;28;20353;-68
2023/09/27 10:04:47;;;;;;;7.13;5.80;;;26.40;99.90;;;;;;5072956;28;20280;-68
2023/09/27 10:07:17;;;;;;;11.23;6.47;;;26.60;99.90;;;;;;5072885;28;20274;-69
2023/09/27 10:09:44;;;;;;;7.35;6.50;;;27.00;99.90;;;;;;5072579;28;20245;-69
2023/09/27 10:12:16;;;;;;;6.22;5.32;;;27.40;99.90;;;;;;5073193;28;20200;-69
2023/09/27 10:14:43;;;;;;;8.70;6.63;;;27.60;99.90;;;;;;5072947;28;20193;-69
2023/09/27 10:17:20;;;;;;;11.45;6.05;;;28.00;99.20;;;;;;5073224;28;20245;-68
2023/09/27 10:20:11;;;;;;;7.28;5.75;;;28.40;97.90;;;;;;5072917;28;20659;-69
2023/09/27 10:22:39;;;;;;;11.15;5.68;;;28.60;97.10;;;;;;5072267;28;20207;-69
2023/09/27 10:25:06;;;;;;;9.45;5.88;;;28.10;96.80;;;;;;5072913;28;20254;-69
2023/09/27 10:28:08;;;;;;;8.57;5.63;;;28.80;96.30;;;;;;5072814;28;20271;-68
2023/09/27 10:31:06;;;;;;;7.30;5.10;;;29.10;94.90;;;;;;5072840;28;20647;-69
2023/09/27 10:33:34;;;;;;;6.75;4.90;;;28.80;93.80;;;;;;5073072;28;20196;-69
2023/09/27 10:36:32;;;;;;;5.95;5.05;;;29.80;92.40;;;;;;5072624;28;20600;-71
2023/09/27 10:39:05;;;;;;;8.60;5.78;;;29.70;91.50;;;;;;5072737;28;20730;-70
2023/09/27 10:41:48;;;;;;;7.55;5.22;;;29.80;90.80;;;;;;5072825;28;20200;-70
2023/09/27 10:44:29;;;;;;;6.07;4.65;;;29.80;90.20;;;;;;5072849;28;20197;-71
2023/09/27 10:46:56;;;;;;;5.63;4.43;;;30.50;90.10;;;;;;5072214;28;20244;-70
2023/09/27 10:49:24;;;;;;;8.77;4.88;;;30.90;86.40;;;;;;5072417;28;20208;-70
2023/09/27 10:51:51;;;;;;;9.05;5.40;;;30.80;85.10;;;;;;5072813;28;20202;-70
2023/09/27 10:54:22;;;;;;;7.00;5.18;;;30.90;82.60;;;;;;5072594;28;20303;-70
2023/09/27 10:56:52;;;;;;;6.28;5.40;;;31.20;82.00;;;;;;5072630;28;20287;-71
2023/09/27 10:59:24;;;;;;;6.00;5.18;;;31.10;80.40;;;;;;5072650;28;20196;-70
2023/09/27 11:01:51;;;;;;;5.80;5.00;;;30.90;82.50;;;;;;5072433;28;20651;-70
2023/09/27 11:04:21;;;;;;;5.82;5.22;;;30.90;81.30;;;;;;5072572;28;20196;-71
2023/09/27 11:06:48;;;;;;;5.80;5.10;;;31.00;80.10;;;;;;5072507;28;20225;-71
2023/09/27 11:09:19;;;;;;;5.57;5.07;;;31.70;78.20;;;;;;5072483;28;20196;-71
2023/09/27 11:11:47;;;;;;;5.13;3.97;;;32.00;76.20;;;;;;5072556;28;20602;-71
2023/09/27 11:14:13;;;;;;;5.00;4.55;;;32.40;74.60;;;;;;5072309;28;20196;-71
2023/09/27 11:16:41;;;;;;;9.70;4.57;;;32.50;73.60;;;;;;5072339;28;20675;-71
2023/09/27 11:19:10;;;;;;;6.75;4.30;;;33.20;71.00;;;;;;5072258;28;20713;-71
2023/09/27 11:21:37;;;;;;;6.30;4.18;;;33.60;69.20;;;;;;5072410;28;20200;-71
2023/09/27 11:24:04;;;;;;;6.43;4.30;;;33.50;66.90;;;;;;5072363;28;20196;-71
2023/09/27 11:26:32;;;;;;;5.50;4.13;;;34.00;66.80;;;;;;5072315;28;20220;-71
2023/09/27 11:29:00;;;;;;;5.07;4.20;;;34.20;64.10;;;;;;5072215;28;20200;-71
2023/09/27 11:31:29;;;;;;;7.13;4.25;;;33.70;62.30;;;;;;5072451;28;20254;-70
2023/09/27 11:36:52;;;;;;;6.63;4.13;;;33.20;62.30;;;;;;5131160;27;20275;-69
2023/09/27 11:39:20;;;;;;;6.43;4.22;;;33.40;59.70;;;;;;5110460;28;20399;-69
2023/09/27 11:41:47;;;;;;;5.85;4.25;;;33.40;60.40;;;;;;5110636;28;20202;-69
2023/09/27 11:44:18;;;;;;;6.57;4.13;;;34.30;60.10;;;;;;5106559;28;20200;-69
2023/09/27 11:46:45;;;;;;;7.05;4.25;;;34.50;56.80;;;;;;5109481;28;20195;-69
2023/09/27 11:49:11;;;;;;;9.00;4.50;;;34.00;57.40;;;;;;5110196;28;20192;-69
2023/09/27 11:51:38;;;;;;;6.53;3.92;;;34.70;56.30;;;;;;5109869;28;20245;-69
2023/09/27 11:54:07;;;;;;;5.50;4.05;;;33.60;55.20;;;;;;5109823;28;20187;-69
2023/09/27 11:56:35;;;;;;;9.07;4.25;;;34.00;55.30;;;;;;5110066;28;20260;-68
2023/09/27 11:59:03;;;;;;;6.20;4.25;;;33.10;56.10;;;;;;5109698;28;20597;-68
2023/09/27 12:01:29;;;;;;;7.28;4.28;;;33.70;55.80;;;;;;5110170;28;20195;-69
2023/09/27 12:03:56;;;;;;;7.20;4.20;;;34.20;55.10;;;;;;5109742;28;20711;-68
2023/09/27 12:06:24;;;;;;;6.15;3.72;;;35.10;54.60;;;;;;5110032;28;20261;-69
2023/09/27 12:08:51;;;;;;;5.82;3.53;;;35.40;52.70;;;;;;5110089;28;20195;-69
2023/09/27 12:11:19;;;;;;;5.65;3.90;;;36.30;52.00;;;;;;5109939;28;20195;-69
2023/09/27 12:13:46;;;;;;;7.90;4.10;;;37.30;51.20;;;;;;5109949;28;20604;-69
2023/09/27 12:16:12;;;;;;;6.13;3.67;;;37.50;49.70;;;;;;5109845;28;20219;-69
2023/09/27 12:18:39;;;;;;;6.22;3.92;;;36.90;49.90;;;;;;5109775;28;20201;-69
2023/09/27 12:21:05;;;;;;;6.40;4.35;;;37.30;49.80;;;;;;5107380;28;20192;-69
2023/09/27 12:23:32;;;;;;;7.05;3.90;;;37.30;48.50;;;;;;5109775;28;20252;-71
2023/09/27 12:25:59;;;;;;;7.78;3.80;;;37.10;48.20;;;;;;5109706;28;20385;-70
2023/09/27 12:28:27;;;;;;;5.68;3.70;;;37.60;47.40;;;;;;5109583;28;20290;-70
2023/09/27 12:30:54;;;;;;;4.50;3.75;;;37.70;46.90;;;;;;5109500;28;20252;-71
2023/09/27 12:33:20;;;;;;;6.55;3.78;;;37.70;46.00;;;;;;5107858;28;20408;-70
2023/09/27 12:35:49;;;;;;;5.63;3.78;;;38.70;45.50;;;;;;5108820;28;20620;-71
2023/09/27 12:38:16;;;;;;;6.68;3.85;;;39.40;44.70;;;;;;5109098;28;20193;-71
2023/09/27 12:40:42;;;;;;;4.00;3.60;;;40.10;43.30;;;;;;5109273;28;20195;-78
2023/09/27 12:43:09;;;;;;;5.35;3.85;;;40.20;42.30;;;;;;5109048;28;20195;-71